Time;durP1;ratioP1;P1;durP2;ratioP2;P2;SDS_P1;SDS_P2;PMS_P1;PMS_P2;Temp;Humidity;BMP_temperature;BMP_pressure;BME280_temperature;BME280_humidity;BME280_pressure;Samples;Min_cycle;Max_cycle;Signal;HPM_P1;HPM_P2
2021/05/11 00:00:01;;;;;;;16.20;13.20;;;;;;;;;;4927542;29;20074;-79
2021/05/11 00:02:27;;;;;;;15.88;13.50;;;;;;;;;;4942970;29;20055;-80
2021/05/11 00:04:53;;;;;;;15.27;12.27;;;;;;;;;;4942149;29;20125;-80
2021/05/11 00:07:19;;;;;;;14.80;12.80;;;;;;;;;;4918072;29;20058;-80
2021/05/11 00:09:45;;;;;;;17.05;13.90;;;;;;;;;;4957842;29;20500;-79
2021/05/11 00:12:12;;;;;;;16.60;13.73;;;;;;;;;;4942551;29;20055;-79
2021/05/11 00:14:38;;;;;;;16.95;13.77;;;;;;;;;;4926528;29;20051;-79
2021/05/11 00:17:04;;;;;;;16.70;13.85;;;;;;;;;;4954572;29;20051;-79
2021/05/11 00:19:30;;;;;;;17.58;14.13;;;;;;;;;;4957194;29;20477;-78
2021/05/11 00:21:57;;;;;;;16.85;14.00;;;;;;;;;;4956831;29;20431;-79
2021/05/11 00:24:23;;;;;;;19.70;15.25;;;;;;;;;;4924873;29;20424;-78
2021/05/11 00:26:49;;;;;;;18.67;14.85;;;;;;;;;;4944211;29;20055;-78
2021/05/11 00:29:16;;;;;;;17.52;13.55;;;;;;;;;;4941235;29;20055;-79
2021/05/11 00:31:42;;;;;;;19.10;14.15;;;;;;;;;;4941422;29;20427;-78
2021/05/11 00:34:08;;;;;;;18.88;14.50;;;;;;;;;;4940872;29;20077;-79
2021/05/11 00:36:35;;;;;;;17.45;14.35;;;;;;;;;;4942736;29;20547;-79
2021/05/11 00:39:02;;;;;;;17.80;14.88;;;;;;;;;;4921498;29;20048;-79
2021/05/11 00:41:28;;;;;;;16.52;13.40;;;;;;;;;;4905540;29;20056;-79
2021/05/11 00:43:54;;;;;;;16.40;13.23;;;;;;;;;;4909072;29;20518;-78
2021/05/11 00:46:20;;;;;;;16.25;13.40;;;;;;;;;;4938942;29;20071;-77
2021/05/11 00:48:46;;;;;;;18.30;14.05;;;;;;;;;;4939609;29;20062;-78
2021/05/11 00:51:13;;;;;;;19.63;15.55;;;;;;;;;;4939522;29;20051;-78
2021/05/11 00:53:41;;;;;;;21.35;15.27;;;;;;;;;;4937087;29;20051;-78
2021/05/11 00:56:09;;;;;;;22.90;15.95;;;;;;;;;;4904723;29;20047;-78
2021/05/11 00:58:36;;;;;;;20.88;15.57;;;;;;;;;;4889996;29;20056;-78
2021/05/11 01:01:02;;;;;;;19.77;14.93;;;;;;;;;;4890344;29;20504;-78
2021/05/11 01:03:29;;;;;;;18.65;14.55;;;;;;;;;;4906013;29;20500;-80
2021/05/11 01:05:55;;;;;;;22.15;15.68;;;;;;;;;;4922569;29;20058;-80
2021/05/11 01:08:21;;;;;;;21.73;14.82;;;;;;;;;;4923261;29;20070;-80
2021/05/11 01:10:48;;;;;;;22.90;15.93;;;;;;;;;;4924295;29;20051;-79
2021/05/11 01:13:14;;;;;;;23.38;16.08;;;;;;;;;;4939689;29;20055;-79
2021/05/11 01:15:42;;;;;;;22.58;15.65;;;;;;;;;;4921998;29;20056;-79
2021/05/11 01:18:12;;;;;;;22.40;15.40;;;;;;;;;;4904489;29;20219;-79
2021/05/11 01:20:41;;;;;;;25.05;15.93;;;;;;;;;;4913710;29;20056;-79
2021/05/11 01:23:26;;;;;;;22.63;15.98;;;;;;;;;;4911444;29;20562;-79
2021/05/11 01:26:00;;;;;;;23.90;15.88;;;;;;;;;;4915599;29;20079;-80
2021/05/11 02:25:21;;;;;;;29.42;16.30;;;;;;;;;;4850519;29;20065;-80
2021/05/11 02:27:47;;;;;;;27.42;16.48;;;;;;;;;;4843201;29;20062;-79
2021/05/11 02:30:15;;;;;;;29.55;17.80;;;;;;;;;;4883452;29;20123;-81
2021/05/11 02:32:42;;;;;;;26.00;16.45;;;;;;;;;;4906292;29;20055;-81
2021/05/11 02:35:09;;;;;;;31.98;16.33;;;;;;;;;;4921103;29;20051;-81
2021/05/11 02:37:35;;;;;;;29.65;16.80;;;;;;;;;;4941779;23;20051;-67
2021/05/11 02:40:03;;;;;;;27.48;16.38;;;;;;;;;;4921452;29;20520;-67
2021/05/11 02:42:29;;;;;;;27.02;15.85;;;;;;;;;;4937046;29;20110;-67
2021/05/11 02:44:56;;;;;;;27.08;16.23;;;;;;;;;;4954312;29;20051;-66
2021/05/11 02:47:22;;;;;;;28.88;15.88;;;;;;;;;;4937034;29;20051;-66
2021/05/11 02:49:50;;;;;;;28.17;16.08;;;;;;;;;;4937115;29;20048;-67
2021/05/11 02:52:17;;;;;;;29.17;16.42;;;;;;;;;;4921174;29;20059;-66
2021/05/11 02:54:43;;;;;;;25.10;14.68;;;;;;;;;;4931627;29;20157;-66
2021/05/11 02:57:09;;;;;;;27.92;15.85;;;;;;;;;;4931368;29;20098;-66
2021/05/11 02:59:39;;;;;;;29.85;15.85;;;;;;;;;;4932971;29;20510;-66
2021/05/11 03:02:05;;;;;;;26.88;15.10;;;;;;;;;;4931776;29;20118;-66
2021/05/11 03:04:32;;;;;;;25.02;14.45;;;;;;;;;;4942385;29;20058;-67
2021/05/11 03:06:58;;;;;;;25.73;14.35;;;;;;;;;;4933554;29;20059;-67
2021/05/11 03:09:25;;;;;;;29.58;15.50;;;;;;;;;;4932617;29;20463;-67
2021/05/11 03:11:52;;;;;;;26.40;15.07;;;;;;;;;;4933530;29;20498;-66
2021/05/11 03:14:18;;;;;;;27.95;16.13;;;;;;;;;;4933472;29;20142;-66
2021/05/11 03:16:44;;;;;;;28.10;15.70;;;;;;;;;;4936459;29;20051;-66
2021/05/11 03:19:12;;;;;;;27.70;16.17;;;;;;;;;;4953741;29;20059;-67
2021/05/11 03:21:38;;;;;;;27.67;15.68;;;;;;;;;;4936747;29;20051;-67
2021/05/11 03:24:13;;;;;;;26.77;15.68;;;;;;;;;;4957005;29;20044;-67
2021/05/11 03:26:39;;;;;;;31.65;16.52;;;;;;;;;;4953499;29;20047;-67
2021/05/11 03:29:05;;;;;;;30.88;16.08;;;;;;;;;;4954681;28;20055;-67
2021/05/11 03:31:31;;;;;;;30.65;17.52;;;;;;;;;;4943146;29;20050;-67
2021/05/11 03:33:58;;;;;;;31.75;17.15;;;;;;;;;;4942707;28;20054;-67
2021/05/11 03:36:25;;;;;;;30.73;16.58;;;;;;;;;;4927255;29;20180;-67
2021/05/11 03:38:52;;;;;;;27.58;16.40;;;;;;;;;;4927227;29;20398;-67
2021/05/11 03:41:23;;;;;;;33.15;16.92;;;;;;;;;;4943167;29;20059;-67
2021/05/11 03:44:04;;;;;;;31.88;16.08;;;;;;;;;;4959966;28;20055;-67
2021/05/11 03:46:30;;;;;;;34.38;17.55;;;;;;;;;;4928959;29;20050;-67
2021/05/11 03:48:56;;;;;;;33.10;18.42;;;;;;;;;;4942916;29;20118;-67
2021/05/11 03:51:23;;;;;;;30.67;16.42;;;;;;;;;;4959831;29;20051;-67
2021/05/11 03:53:49;;;;;;;31.63;17.05;;;;;;;;;;4942914;29;20043;-67
2021/05/11 03:56:16;;;;;;;31.80;16.77;;;;;;;;;;4960377;29;20047;-67
2021/05/11 03:58:42;;;;;;;32.00;17.02;;;;;;;;;;4959282;29;20051;-67
2021/05/11 04:01:09;;;;;;;30.45;16.67;;;;;;;;;;4959418;28;20088;-67
2021/05/11 04:03:36;;;;;;;31.60;17.33;;;;;;;;;;4942368;29;20043;-67
2021/05/11 04:06:03;;;;;;;29.20;16.48;;;;;;;;;;4959060;29;20051;-66
2021/05/11 04:11:25;;;;;;;29.02;16.00;;;;;;;;;;4928630;29;20051;-67
2021/05/11 04:18:52;;;;;;;30.20;16.27;;;;;;;;;;4943009;29;20055;-67
2021/05/11 04:21:19;;;;;;;27.65;15.48;;;;;;;;;;4938920;29;20052;-68
2021/05/11 04:23:46;;;;;;;29.58;16.83;;;;;;;;;;4954262;28;20043;-66
2021/05/11 04:26:13;;;;;;;29.48;17.48;;;;;;;;;;4942249;29;20418;-67
2021/05/11 04:28:41;;;;;;;26.95;15.98;;;;;;;;;;4942516;29;20051;-67
2021/05/11 04:31:08;;;;;;;27.02;16.05;;;;;;;;;;4888475;29;21682;-67
2021/05/11 04:33:35;;;;;;;28.70;16.70;;;;;;;;;;4931084;28;20102;-68
2021/05/11 04:36:02;;;;;;;29.33;16.15;;;;;;;;;;4959167;28;20051;-67
2021/05/11 04:38:29;;;;;;;27.10;16.50;;;;;;;;;;4942414;29;20111;-67
2021/05/11 04:40:56;;;;;;;27.65;15.80;;;;;;;;;;4941609;29;20051;-67
2021/05/11 04:43:25;;;;;;;30.63;16.85;;;;;;;;;;4938897;29;20102;-67
2021/05/11 04:46:03;;;;;;;27.92;15.75;;;;;;;;;;4907884;29;20047;-67
2021/05/11 04:48:30;;;;;;;25.67;16.30;;;;;;;;;;4940834;29;20063;-67
2021/05/11 04:50:57;;;;;;;26.25;15.70;;;;;;;;;;4923529;29;20109;-67
2021/05/11 04:53:24;;;;;;;24.83;14.00;;;;;;;;;;4956022;29;20122;-67
2021/05/11 04:55:51;;;;;;;26.90;15.90;;;;;;;;;;4923786;29;20048;-66
2021/05/11 04:58:18;;;;;;;27.23;15.68;;;;;;;;;;4940018;29;20054;-67
2021/05/11 05:00:45;;;;;;;22.98;14.05;;;;;;;;;;4957228;29;20109;-67
2021/05/11 05:03:15;;;;;;;25.05;15.88;;;;;;;;;;4924868;29;20051;-67
2021/05/11 05:05:43;;;;;;;27.77;15.43;;;;;;;;;;4957389;29;20247;-67
2021/05/11 05:08:10;;;;;;;27.13;16.13;;;;;;;;;;4956242;29;20503;-68
2021/05/11 05:10:37;;;;;;;26.83;16.15;;;;;;;;;;4957883;29;20059;-67
2021/05/11 05:13:04;;;;;;;23.45;14.48;;;;;;;;;;4941103;29;20082;-67
2021/05/11 05:15:31;;;;;;;23.23;13.82;;;;;;;;;;4958435;29;20051;-67
2021/05/11 05:17:58;;;;;;;21.40;12.80;;;;;;;;;;4956340;29;20065;-68
2021/05/11 05:20:25;;;;;;;17.73;11.57;;;;;;;;;;4955412;29;20474;-67
2021/05/11 05:22:52;;;;;;;23.42;13.82;;;;;;;;;;4937331;29;20054;-68
2021/05/11 05:25:26;;;;;;;24.40;14.68;;;;;;;;;;4937700;29;20055;-67
2021/05/11 05:30:22;;;;;;;25.63;15.35;;;;;;;;;;4955233;29;20122;-67
2021/05/11 05:32:48;;;;;;;20.30;12.80;;;;;;;;;;4938248;29;20062;-67
2021/05/11 05:35:16;;;;;;;24.33;14.23;;;;;;;;;;4939955;29;20047;-67
2021/05/11 05:37:42;;;;;;;21.67;13.45;;;;;;;;;;4940512;29;20048;-67
2021/05/11 05:40:10;;;;;;;18.92;11.63;;;;;;;;;;4940702;29;20078;-68
2021/05/11 05:42:37;;;;;;;20.58;13.23;;;;;;;;;;4940888;29;20438;-67
2021/05/11 05:45:04;;;;;;;19.98;12.10;;;;;;;;;;4940126;29;20435;-68
2021/05/11 05:47:31;;;;;;;21.52;12.40;;;;;;;;;;4957339;29;20102;-68
2021/05/11 05:50:05;;;;;;;16.35;10.80;;;;;;;;;;4940252;29;20090;-67
2021/05/11 05:52:37;;;;;;;21.88;12.43;;;;;;;;;;4939320;29;20106;-68
2021/05/11 05:55:04;;;;;;;16.23;11.40;;;;;;;;;;4939637;29;20048;-67
2021/05/11 05:57:31;;;;;;;20.88;12.73;;;;;;;;;;4922519;29;20051;-67
2021/05/11 05:59:57;;;;;;;16.98;11.60;;;;;;;;;;4937992;29;20573;-67
2021/05/11 06:02:25;;;;;;;20.42;13.68;;;;;;;;;;4955118;29;20055;-66
2021/05/11 06:04:52;;;;;;;19.20;13.07;;;;;;;;;;4955323;29;20131;-66
2021/05/11 06:07:18;;;;;;;21.38;11.55;;;;;;;;;;4954717;29;20331;-67
2021/05/11 06:09:45;;;;;;;16.73;11.50;;;;;;;;;;4937675;29;20047;-67
2021/05/11 06:12:33;;;;;;;16.77;11.05;;;;;;;;;;4954765;29;20059;-67
2021/05/11 06:17:44;;;;;;;17.00;11.73;;;;;;;;;;4940359;29;20055;-67
2021/05/11 06:20:14;;;;;;;15.43;10.60;;;;;;;;;;4954594;29;20422;-67
2021/05/11 06:22:40;;;;;;;17.88;12.30;;;;;;;;;;4938059;29;20501;-67
2021/05/11 06:25:09;;;;;;;17.02;11.77;;;;;;;;;;4954616;29;20110;-67
2021/05/11 06:27:35;;;;;;;15.38;11.10;;;;;;;;;;4954718;29;20466;-68
2021/05/11 06:30:02;;;;;;;18.48;12.23;;;;;;;;;;4954598;29;20126;-67
2021/05/11 06:32:29;;;;;;;15.20;10.65;;;;;;;;;;4937459;29;20051;-67
2021/05/11 06:35:01;;;;;;;16.48;11.27;;;;;;;;;;4954404;29;20062;-68
2021/05/11 06:37:27;;;;;;;17.25;11.82;;;;;;;;;;4937133;29;20063;-69
2021/05/11 06:39:56;;;;;;;16.23;11.77;;;;;;;;;;4936392;29;20507;-70
2021/05/11 06:42:23;;;;;;;15.43;11.07;;;;;;;;;;4935297;29;20102;-69
2021/05/11 06:53:09;;;;;;;11.38;9.15;;;;;;;;;;4915736;29;20510;-67
2021/05/11 06:55:39;;;;;;;12.27;9.35;;;;;;;;;;4932989;29;20055;-67
2021/05/11 06:58:06;;;;;;;14.65;10.57;;;;;;;;;;4916329;29;20102;-67
2021/05/11 07:00:32;;;;;;;12.43;9.63;;;;;;;;;;4933683;29;20051;-66
2021/05/11 07:03:00;;;;;;;13.02;8.75;;;;;;;;;;4934865;29;20051;-66
2021/05/11 07:05:33;;;;;;;11.57;8.13;;;;;;;;;;4951106;28;20129;-67
2021/05/11 07:11:07;;;;;;;13.23;9.32;;;;;;;;;;4920830;29;20063;-67
2021/05/11 07:13:35;;;;;;;13.38;8.70;;;;;;;;;;4931539;29;20507;-67
2021/05/11 07:16:02;;;;;;;13.60;9.30;;;;;;;;;;4932209;29;20076;-67
2021/05/11 07:18:32;;;;;;;13.13;9.27;;;;;;;;;;4933988;29;20058;-66
2021/05/11 07:21:00;;;;;;;15.30;8.70;;;;;;;;;;4933925;29;20106;-67
2021/05/11 07:23:27;;;;;;;13.52;9.68;;;;;;;;;;4951580;29;20126;-67
2021/05/11 07:31:04;;;;;;;12.77;9.27;;;;;;;;;;4903512;29;20056;-67
2021/05/11 07:33:51;;;;;;;11.98;9.38;;;;;;;;;;4915301;29;20107;-67
2021/05/11 07:36:18;;;;;;;10.82;8.38;;;;;;;;;;4931217;29;20055;-67
2021/05/11 07:38:45;;;;;;;12.52;9.13;;;;;;;;;;4934825;29;20103;-67
2021/05/11 07:41:15;;;;;;;12.98;8.98;;;;;;;;;;4915406;29;20102;-67
2021/05/11 07:43:45;;;;;;;11.50;8.82;;;;;;;;;;4900409;29;20055;-68
2021/05/11 08:15:30;;;;;;;7.85;6.68;;;;;;;;;;4928531;29;20134;-67
2021/05/11 08:28:50;;;;;;;9.82;6.03;;;;;;;;;;4942681;29;20051;-67
2021/05/11 08:31:17;;;;;;;7.68;6.55;;;;;;;;;;4944115;29;20106;-67
2021/05/11 08:33:43;;;;;;;7.82;5.93;;;;;;;;;;4942790;29;20122;-68
2021/05/11 08:36:11;;;;;;;7.30;5.47;;;;;;;;;;4945414;29;20062;-67
2021/05/11 08:38:38;;;;;;;7.90;5.70;;;;;;;;;;4960859;23;20055;-71
2021/05/11 08:41:05;;;;;;;6.70;5.40;;;;;;;;;;4929066;29;20506;-73
2021/05/11 08:43:36;;;;;;;6.00;5.22;;;;;;;;;;4916361;29;20055;-73
2021/05/11 08:46:07;;;;;;;6.38;5.07;;;;;;;;;;4918721;29;20047;-72
2021/05/11 08:48:34;;;;;;;6.18;5.15;;;;;;;;;;4937163;29;20055;-74
2021/05/11 08:53:57;;;;;;;7.55;5.50;;;;;;;;;;4929503;29;20431;-73
2021/05/11 09:05:01;;;;;;;6.13;5.43;;;;;;;;;;4935039;29;20044;-74
2021/05/11 09:07:46;;;;;;;6.63;5.07;;;;;;;;;;4920754;29;20083;-72
2021/05/11 10:46:54;;;;;;;4.78;4.05;;;;;;;;;;4929189;29;20043;-74
2021/05/11 10:49:40;;;;;;;6.03;5.10;;;;;;;;;;4932504;29;20578;-74
2021/05/11 10:52:41;;;;;;;5.15;4.65;;;;;;;;;;4918221;29;20059;-74
2021/05/11 10:55:12;;;;;;;5.13;4.63;;;;;;;;;;4913240;29;20044;-74
2021/05/11 11:05:43;;;;;;;5.45;4.95;;;;;;;;;;4919312;29;20495;-74
2021/05/11 11:08:39;;;;;;;5.88;5.28;;;;;;;;;;4920662;29;20055;-74
2021/05/11 11:11:17;;;;;;;5.63;5.00;;;;;;;;;;4916747;29;20047;-73
2021/05/11 11:13:49;;;;;;;5.55;5.05;;;;;;;;;;4928374;29;20048;-74
2021/05/11 11:16:36;;;;;;;5.28;4.78;;;;;;;;;;4913677;29;20058;-74
2021/05/11 11:19:09;;;;;;;6.63;5.82;;;;;;;;;;4913763;29;20530;-74
2021/05/11 11:24:30;;;;;;;8.83;6.93;;;;;;;;;;4897458;29;20084;-71
2021/05/11 11:26:58;;;;;;;7.25;6.15;;;;;;;;;;4911802;29;20309;-74
2021/05/11 11:29:25;;;;;;;6.78;6.15;;;;;;;;;;4927307;29;20087;-74
2021/05/11 11:31:52;;;;;;;6.68;6.07;;;;;;;;;;4896214;29;20071;-72
2021/05/11 11:34:33;;;;;;;9.15;8.25;;;;;;;;;;4923716;29;20055;-72
2021/05/11 11:37:03;;;;;;;9.25;8.35;;;;;;;;;;4911776;29;20126;-73
2021/05/11 11:39:31;;;;;;;10.38;8.75;;;;;;;;;;4895157;29;20055;-72
2021/05/11 11:42:05;;;;;;;8.80;7.90;;;;;;;;;;4920712;29;20547;-71
2021/05/11 11:44:39;;;;;;;10.38;9.38;;;;;;;;;;4910574;29;20056;-72
2021/05/11 11:47:08;;;;;;;10.57;9.57;;;;;;;;;;4909174;29;20066;-71
2021/05/11 11:49:38;;;;;;;10.68;9.63;;;;;;;;;;4923187;29;20048;-72
2021/05/11 11:52:25;;;;;;;10.75;9.75;;;;;;;;;;4898770;29;20462;-72
2021/05/11 12:00:29;;;;;;;10.43;9.43;;;;;;;;;;4929856;29;20430;-71
2021/05/11 12:03:01;;;;;;;9.88;9.02;;;;;;;;;;4929634;29;20052;-72
2021/05/11 12:05:34;;;;;;;10.45;9.45;;;;;;;;;;4928036;29;20052;-74
2021/05/11 12:08:32;;;;;;;10.63;9.63;;;;;;;;;;4928946;29;20109;-73
2021/05/11 12:11:07;;;;;;;10.13;9.23;;;;;;;;;;4919193;29;20114;-75
2021/05/11 12:13:36;;;;;;;8.10;7.30;;;;;;;;;;4904082;29;20051;-74
2021/05/11 12:16:11;;;;;;;8.32;7.10;;;;;;;;;;4908789;29;20052;-73
2021/05/11 12:18:59;;;;;;;5.80;5.30;;;;;;;;;;4926297;29;20052;-73
2021/05/11 12:21:27;;;;;;;4.85;4.45;;;;;;;;;;4931953;29;20055;-74
2021/05/11 12:24:11;;;;;;;5.38;4.95;;;;;;;;;;4916581;29;20500;-73
2021/05/11 12:26:44;;;;;;;4.97;4.00;;;;;;;;;;4918068;29;20048;-75
2021/05/11 12:29:33;;;;;;;4.38;4.07;;;;;;;;;;4918526;29;20573;-71
2021/05/11 12:32:02;;;;;;;4.43;4.03;;;;;;;;;;4923571;29;20586;-73
2021/05/11 12:34:29;;;;;;;3.80;3.42;;;;;;;;;;4915610;29;20188;-73
2021/05/11 12:36:59;;;;;;;3.75;3.45;;;;;;;;;;4925208;29;20076;-74
2021/05/11 12:39:41;;;;;;;9.52;3.80;;;;;;;;;;4921942;29;20127;-73
2021/05/11 12:42:24;;;;;;;4.38;3.97;;;;;;;;;;4926373;29;20062;-72
2021/05/11 12:45:06;;;;;;;4.55;4.25;;;;;;;;;;4927762;29;20056;-74
2021/05/11 12:47:48;;;;;;;5.63;5.10;;;;;;;;;;4909627;29;20055;-74
2021/05/11 12:50:28;;;;;;;5.32;4.82;;;;;;;;;;4930333;29;20068;-74
2021/05/11 12:53:06;;;;;;;6.53;5.93;;;;;;;;;;4915158;29;20396;-74
2021/05/11 12:58:36;;;;;;;7.47;6.88;;;;;;;;;;4919019;29;20058;-74
2021/05/11 13:15:25;;;;;;;11.40;10.40;;;;;;;;;;4927930;29;20055;-74
2021/05/11 13:28:23;;;;;;;8.45;6.13;;;;;;;;;;4916923;29;20094;-73
2021/05/11 13:30:57;;;;;;;5.57;5.00;;;;;;;;;;4929550;29;20052;-73
2021/05/11 13:33:50;;;;;;;5.57;5.07;;;;;;;;;;4926036;29;20066;-73
2021/05/11 13:36:17;;;;;;;5.50;4.97;;;;;;;;;;4929771;29;20504;-72
2021/05/11 13:38:46;;;;;;;5.53;5.03;;;;;;;;;;4906119;29;20132;-73
2021/05/11 13:41:14;;;;;;;6.70;5.78;;;;;;;;;;4917499;29;20055;-74
2021/05/11 13:43:40;;;;;;;6.13;5.55;;;;;;;;;;4915356;29;20563;-73
2021/05/11 13:46:07;;;;;;;6.32;5.82;;;;;;;;;;4915195;29;20103;-73
2021/05/11 13:48:38;;;;;;;8.55;6.75;;;;;;;;;;4917548;29;20058;-74
2021/05/11 13:53:35;;;;;;;7.70;7.00;;;;;;;;;;4900196;29;20513;-73
2021/05/11 14:03:57;;;;;;;15.38;7.18;;;;;;;;;;4935678;29;20570;-73
2021/05/11 14:06:24;;;;;;;7.32;6.63;;;;;;;;;;4918629;29;20177;-73
2021/05/11 14:08:51;;;;;;;6.80;6.18;;;;;;;;;;4917490;29;20048;-73
2021/05/11 14:11:17;;;;;;;7.50;6.75;;;;;;;;;;4916766;29;20048;-73
2021/05/11 14:13:44;;;;;;;8.07;5.30;;;;;;;;;;4912195;29;20087;-71
2021/05/11 14:16:11;;;;;;;5.30;4.90;;;;;;;;;;4925964;29;20463;-73
2021/05/11 14:18:38;;;;;;;4.72;4.22;;;;;;;;;;4927319;29;20090;-74
2021/05/11 14:21:06;;;;;;;4.93;4.35;;;;;;;;;;4901233;29;20422;-72
2021/05/11 14:23:33;;;;;;;4.00;3.60;;;;;;;;;;4927116;29;20048;-71
2021/05/11 14:26:00;;;;;;;4.60;3.55;;;;;;;;;;4929727;29;20146;-72
2021/05/11 14:28:27;;;;;;;4.05;3.30;;;;;;;;;;4907356;29;20056;-73
2021/05/11 14:30:53;;;;;;;3.85;3.08;;;;;;;;;;4926313;29;20079;-71
2021/05/11 14:33:20;;;;;;;3.20;2.90;;;;;;;;;;4931666;29;20055;-71
2021/05/11 14:35:47;;;;;;;3.90;3.35;;;;;;;;;;4927469;29;20477;-73
2021/05/11 14:38:14;;;;;;;3.50;2.78;;;;;;;;;;4929206;29;20586;-72
2021/05/11 14:40:41;;;;;;;4.32;3.92;;;;;;;;;;4923198;29;20072;-70
2021/05/11 14:43:07;;;;;;;4.95;3.35;;;;;;;;;;4918434;29;20471;-72
2021/05/11 14:45:34;;;;;;;6.38;5.75;;;;;;;;;;4934959;29;20551;-72
2021/05/11 14:48:00;;;;;;;4.00;3.42;;;;;;;;;;4933647;29;20064;-72
2021/05/11 14:50:28;;;;;;;7.30;3.28;;;;;;;;;;4927602;29;20059;-71
2021/05/11 14:52:57;;;;;;;4.93;2.70;;;;;;;;;;4890814;29;20500;-71
2021/05/11 14:55:24;;;;;;;3.60;2.90;;;;;;;;;;4922162;29;20083;-73
2021/05/11 14:57:52;;;;;;;3.13;2.83;;;;;;;;;;4915966;29;20076;-70
2021/05/11 15:00:23;;;;;;;2.53;2.33;;;;;;;;;;4932233;29;20502;-70
2021/05/11 15:02:50;;;;;;;2.63;2.42;;;;;;;;;;4930913;29;20492;-72
2021/05/11 15:05:18;;;;;;;3.67;2.60;;;;;;;;;;4911251;29;20138;-72
2021/05/11 15:07:48;;;;;;;2.03;1.80;;;;;;;;;;4934134;29;20047;-71
2021/05/11 15:10:17;;;;;;;2.55;1.80;;;;;;;;;;4932914;29;20110;-72
2021/05/11 15:12:44;;;;;;;2.55;2.13;;;;;;;;;;4932857;29;20055;-72
2021/05/11 15:15:15;;;;;;;2.08;1.83;;;;;;;;;;4927461;29;20095;-72
2021/05/11 15:20:11;;;;;;;2.17;2.00;;;;;;;;;;4930617;29;20510;-71
2021/05/11 15:22:58;;;;;;;3.15;1.95;;;;;;;;;;4926280;29;20062;-72
2021/05/11 15:25:27;;;;;;;1.75;1.63;;;;;;;;;;4933235;29;20051;-69
2021/05/11 15:27:54;;;;;;;2.50;1.42;;;;;;;;;;4926298;29;20047;-69
2021/05/11 15:30:26;;;;;;;2.38;1.25;;;;;;;;;;4930319;29;20059;-69
2021/05/11 15:32:55;;;;;;;1.40;1.30;;;;;;;;;;4931223;29;20427;-73
2021/05/11 15:35:24;;;;;;;2.08;1.98;;;;;;;;;;4914517;29;20051;-73
2021/05/11 15:37:56;;;;;;;2.83;1.52;;;;;;;;;;4912682;29;20504;-72
2021/05/11 15:40:23;;;;;;;2.15;2.05;;;;;;;;;;4912660;29;20105;-69
2021/05/11 15:42:51;;;;;;;4.30;1.95;;;;;;;;;;4917238;29;20055;-74
2021/05/11 15:45:18;;;;;;;3.35;2.00;;;;;;;;;;4914894;29;20130;-74
2021/05/11 15:47:54;;;;;;;3.03;2.60;;;;;;;;;;4913908;29;20104;-74
2021/05/11 15:50:25;;;;;;;2.92;2.30;;;;;;;;;;4913573;29;20048;-72
2021/05/11 15:52:54;;;;;;;4.05;2.60;;;;;;;;;;4919287;29;20056;-74
2021/05/11 15:55:21;;;;;;;3.63;2.30;;;;;;;;;;4910284;29;20107;-74
2021/05/11 15:57:50;;;;;;;4.32;2.33;;;;;;;;;;4915342;29;20079;-72
2021/05/11 16:00:19;;;;;;;4.07;2.22;;;;;;;;;;4931776;29;20408;-71
2021/05/11 16:02:48;;;;;;;2.50;2.30;;;;;;;;;;4930256;29;20055;-72
2021/05/11 16:05:19;;;;;;;3.10;2.63;;;;;;;;;;4901294;29;20055;-71
2021/05/11 16:07:46;;;;;;;3.75;2.60;;;;;;;;;;4932942;29;20095;-71
2021/05/11 16:10:13;;;;;;;3.15;2.25;;;;;;;;;;4932753;29;20420;-72
2021/05/11 16:12:40;;;;;;;2.33;2.13;;;;;;;;;;4932077;29;20494;-71
2021/05/11 16:15:14;;;;;;;2.40;2.10;;;;;;;;;;4927790;29;20084;-72
2021/05/11 16:17:41;;;;;;;2.80;2.38;;;;;;;;;;4914737;29;20048;-72
2021/05/11 16:20:09;;;;;;;2.40;2.20;;;;;;;;;;4897923;29;20048;-71
2021/05/11 16:22:36;;;;;;;3.75;3.10;;;;;;;;;;4897970;29;20567;-71
2021/05/11 16:25:07;;;;;;;3.20;2.90;;;;;;;;;;4914445;29;20354;-71
2021/05/11 16:27:42;;;;;;;3.30;3.00;;;;;;;;;;4921775;29;20119;-72
2021/05/11 16:30:29;;;;;;;3.92;3.50;;;;;;;;;;4930612;29;20119;-72
2021/05/11 16:32:57;;;;;;;6.05;3.35;;;;;;;;;;4909776;29;20410;-74
2021/05/11 16:35:23;;;;;;;3.55;2.47;;;;;;;;;;4898053;29;20048;-72
2021/05/11 16:37:50;;;;;;;5.25;2.30;;;;;;;;;;4927804;29;20044;-74
2021/05/11 16:40:18;;;;;;;2.78;1.98;;;;;;;;;;4927139;29;20452;-73
2021/05/11 16:42:47;;;;;;;2.50;2.28;;;;;;;;;;4918516;29;20099;-71
2021/05/11 16:45:14;;;;;;;3.33;2.50;;;;;;;;;;4929025;29;20048;-72
2021/05/11 16:47:56;;;;;;;3.10;2.80;;;;;;;;;;4927594;29;20055;-72
2021/05/11 16:50:25;;;;;;;3.92;3.55;;;;;;;;;;4920618;29;20584;-72
2021/05/11 16:52:53;;;;;;;3.83;3.53;;;;;;;;;;4917988;29;20130;-71
2021/05/11 16:55:20;;;;;;;5.25;4.43;;;;;;;;;;4928644;29;20055;-72
2021/05/11 16:57:47;;;;;;;5.65;3.47;;;;;;;;;;4915619;29;20076;-73
2021/05/11 17:00:14;;;;;;;3.58;3.08;;;;;;;;;;4917751;29;20071;-73
2021/05/11 17:02:41;;;;;;;4.30;2.88;;;;;;;;;;4933296;29;20048;-74
2021/05/11 17:05:10;;;;;;;8.95;2.85;;;;;;;;;;4912581;29;20055;-71
2021/05/11 17:07:38;;;;;;;3.63;2.67;;;;;;;;;;4926548;29;20048;-71
2021/05/11 17:10:06;;;;;;;2.47;2.28;;;;;;;;;;4925624;29;20052;-76
2021/05/11 17:12:33;;;;;;;3.35;2.25;;;;;;;;;;4900389;29;20148;-74
2021/05/11 17:15:00;;;;;;;2.88;2.08;;;;;;;;;;4916793;29;20650;-74
2021/05/11 17:17:27;;;;;;;4.30;1.80;;;;;;;;;;4918719;29;20048;-73
2021/05/11 17:19:54;;;;;;;1.95;1.50;;;;;;;;;;4926306;29;20100;-75
2021/05/11 17:22:22;;;;;;;3.63;1.58;;;;;;;;;;4916305;29;20055;-74
2021/05/11 17:24:49;;;;;;;1.48;1.30;;;;;;;;;;4903591;29;20093;-74
2021/05/11 17:27:16;;;;;;;2.47;1.02;;;;;;;;;;4917057;29;20566;-73
2021/05/11 17:29:42;;;;;;;2.00;1.55;;;;;;;;;;4928458;29;20298;-75
2021/05/11 17:32:11;;;;;;;5.45;1.20;;;;;;;;;;4925683;29;20955;-73
2021/05/11 17:34:41;;;;;;;2.22;1.55;;;;;;;;;;4915708;29;20059;-74
2021/05/11 17:37:08;;;;;;;3.60;2.63;;;;;;;;;;4909681;29;20039;-73
2021/05/11 17:39:35;;;;;;;2.70;1.63;;;;;;;;;;4928632;29;20055;-74
2021/05/11 17:42:06;;;;;;;2.28;1.50;;;;;;;;;;4886141;29;20063;-73
2021/05/11 17:44:33;;;;;;;1.63;1.30;;;;;;;;;;4915466;29;20051;-76
2021/05/11 17:47:01;;;;;;;5.45;1.88;;;;;;;;;;4892496;29;20079;-73
2021/05/11 17:49:29;;;;;;;2.97;2.15;;;;;;;;;;4926865;29;20060;-76
2021/05/11 17:51:56;;;;;;;4.20;2.13;;;;;;;;;;4912066;29;20091;-78
2021/05/11 17:54:23;;;;;;;2.92;2.63;;;;;;;;;;4894229;29;20130;-74
2021/05/11 17:56:49;;;;;;;4.10;2.63;;;;;;;;;;4926423;29;20052;-75
2021/05/11 17:59:17;;;;;;;2.40;1.98;;;;;;;;;;4896973;29;20047;-76
2021/05/11 18:01:43;;;;;;;6.68;2.65;;;;;;;;;;4923121;29;20055;-76
2021/05/11 18:04:10;;;;;;;4.20;2.20;;;;;;;;;;4922755;29;20048;-77
2021/05/11 18:06:52;;;;;;;2.70;1.80;;;;;;;;;;4918470;29;20059;-75
2021/05/11 18:09:35;;;;;;;4.60;2.30;;;;;;;;;;4916378;29;20070;-74
2021/05/11 18:12:03;;;;;;;4.00;2.13;;;;;;;;;;4915781;29;20056;-71
2021/05/11 18:14:30;;;;;;;5.68;2.53;;;;;;;;;;4933550;29;20059;-72
2021/05/11 18:16:59;;;;;;;4.38;2.47;;;;;;;;;;4917847;29;20048;-73
2021/05/11 18:19:26;;;;;;;4.57;2.75;;;;;;;;;;4913800;29;20052;-72
2021/05/11 18:21:52;;;;;;;4.53;2.17;;;;;;;;;;4913169;29;20052;-76
2021/05/11 18:24:20;;;;;;;3.00;2.50;;;;;;;;;;4913388;29;20060;-73
2021/05/11 18:26:47;;;;;;;6.38;3.85;;;;;;;;;;4896623;29;20409;-72
2021/05/11 18:29:14;;;;;;;6.72;2.80;;;;;;;;;;4918952;29;20062;-73
2021/05/11 18:31:41;;;;;;;3.85;2.38;;;;;;;;;;4914744;29;20518;-75
2021/05/11 18:34:08;;;;;;;2.83;1.85;;;;;;;;;;4917840;29;20047;-72
2021/05/11 18:39:24;;;;;;;3.50;2.67;;;;;;;;;;4933149;29;20055;-72
2021/05/11 18:41:52;;;;;;;3.20;2.33;;;;;;;;;;4933353;29;20090;-72
2021/05/11 18:44:20;;;;;;;3.38;2.58;;;;;;;;;;4931886;29;20562;-73
2021/05/11 18:46:48;;;;;;;2.88;2.40;;;;;;;;;;4915836;29;20100;-73
2021/05/11 18:49:15;;;;;;;4.53;2.83;;;;;;;;;;4904066;29;20111;-73
2021/05/11 18:51:42;;;;;;;4.15;2.05;;;;;;;;;;4913477;29;20056;-70
2021/05/11 18:54:09;;;;;;;2.28;2.08;;;;;;;;;;4913891;29;20056;-73
2021/05/11 18:56:36;;;;;;;5.05;2.65;;;;;;;;;;4913054;29;20068;-74
2021/05/11 18:59:03;;;;;;;5.13;2.90;;;;;;;;;;4897359;29;20056;-74
2021/05/11 19:01:30;;;;;;;3.35;2.78;;;;;;;;;;4923414;29;20142;-71
2021/05/11 19:03:57;;;;;;;7.63;4.82;;;;;;;;;;4932280;29;20083;-74
2021/05/11 19:06:23;;;;;;;10.40;5.70;;;;;;;;;;4932600;29;20111;-71
2021/05/11 19:08:50;;;;;;;7.60;4.90;;;;;;;;;;4915800;29;20076;-70
2021/05/11 19:11:17;;;;;;;5.82;4.10;;;;;;;;;;4931584;29;20056;-71
2021/05/11 19:13:44;;;;;;;5.22;3.90;;;;;;;;;;4917591;29;20058;-73
2021/05/11 19:16:11;;;;;;;4.03;3.50;;;;;;;;;;4912442;29;20059;-72
2021/05/11 19:18:38;;;;;;;5.47;3.38;;;;;;;;;;4913773;29;20583;-73
2021/05/11 19:21:07;;;;;;;6.47;3.70;;;;;;;;;;4913919;29;20052;-74
2021/05/11 19:23:36;;;;;;;4.93;3.38;;;;;;;;;;4880954;29;20146;-73
2021/05/11 19:26:04;;;;;;;5.55;3.08;;;;;;;;;;4927326;29;20401;-75
2021/05/11 19:28:32;;;;;;;3.78;2.38;;;;;;;;;;4915770;29;20471;-73
2021/05/11 19:31:00;;;;;;;4.40;2.33;;;;;;;;;;4932395;29;20467;-74
2021/05/11 19:33:32;;;;;;;2.58;2.35;;;;;;;;;;4930879;29;20048;-72
2021/05/11 19:36:00;;;;;;;2.40;2.20;;;;;;;;;;4932388;29;20060;-70